CheckWX is a tool to help pilots better visualize weather data.  It is not intended as a substitute for an official pre-flight weather briefing.

11:16:56 UTC

KWYS TAF
Yellowstone Airport
West Yellowstone, Montana, USA
KWYS 031140Z 0312/0412 VRB04KT P6SM VCSH SCT026 BKN045 TEMPO 0312/0314 3SM -SN SCT012 BKN025 FM031800 21010G17KT P6SM SCT030 BKN045 FM040300 20007KT P6SM FEW035 SCT050

Apr-3@
12:00 UTC

Apr-3 @ 12:00 UTC

Apr-3@
18:00 UTC

Apr-3 @ 18:00 UTC

TAF KWYS 031140Z 0312/0412 VRB04KT P6SM VCSH SCT026 BKN045

Expired

Wind
  • Variable at 4 KTS
Conditions
Area Showers
Cloud Levels
  • Scattered at 2,600' AGL
  • Broken at 4,500' AGL

Apr-3@
12:00 UTC

Apr-3 @ 12:00 UTC

Apr-3@
14:00 UTC

Apr-3 @ 14:00 UTC

TEMPO 0312/0314 3SM -SN SCT012 BKN025

Expired

Conditions
Light Snow
Cloud Levels
  • Scattered at 1,200' AGL
  • Broken at 2,500' AGL

Apr-3@
18:00 UTC

Apr-3 @ 18:00 UTC

Apr-4@
03:00 UTC

Apr-4 @ 03:00 UTC

FM031800 21010G17KT P6SM SCT030 BKN045

Expired

Wind
  • 210° at 10 KTS
  • {Gusting to 17 KTS
Cloud Levels
  • Scattered at 3,000' AGL
  • Broken at 4,500' AGL

Apr-4@
03:00 UTC

Apr-4 @ 03:00 UTC

Apr-4@
12:00 UTC

Apr-4 @ 12:00 UTC

FM040300 20007KT P6SM FEW035 SCT050

From

From Standard forecast or significant change

Wind
  • 200° at 7 KTS
Cloud Levels
  • Few at 3,500' AGL
  • Scattered at 5,000' AGL